Wausau Downtown Airport
KAUW : now visible

Airfield :











YOU CAN JOIN US ON...

 
LOGIN :

Register | Disclaimer

   EN    FR    IT 

 









Legend :    VFR   Marginal VFR   IFR   Intensive IFR   Very Intensive IFR
Visi :
Ceiling :
>= 8 km
>= 3000ft
5 to 8 km
1000 to 3000 ft
1500m to 5 km
500 to 1000 ft
800 to 1500m
200 to 500 ft
< 800m
< 200 ft
Symbols :   Thunderstorms  Fog  Heavy snow  Heavy precipitations  Wind > 20 kt






- Airport Elevation : 1201 ft


KAUW - Wausau Downtown

CURRENT METAR :
  • 181128Z AUTO 10007KT 2SM -SN BR SCT020 OVC034 M04/M05 A2971 RMK AO2 P0000 T10441050

EXPIRED METARs :
  • 181054Z AUTO 11010KT 1SM -SN BR VV016 M04/M06 A2973 RMK AO2 PRESFR SLP091 P0002 T10441056
  • 180954Z AUTO 10008KT 1 1/2SM -SN BR FEW017 OVC027 M04/M06 A2980 RMK AO2 SLP113 P0000 T10441056
  • 180854Z AUTO 11011G19KT 1 1/4SM -SN BR FEW011 OVC029 M04/M06 A2985 RMK AO2 SLP130 P0000 60001 T10441056 58016
  • 180849Z AUTO 11012KT 1 1/4SM -SN BR FEW011 FEW014 OVC034 M04/M06 A2985 RMK AO2 PRESFR P0000

TAF KAUW
Valid from the 18 at 12:00 until the 19 at 12:00 UTC


181134Z 1812/1912 13007KT 1SM -SN OVC015
FM181400 17005KT 1SM -SN OVC008
FM181700 29012G24KT 2SM -SHSN BLSN OVC008
FM182200 29017G29KT 6SM -SHSN BLSN OVC015
FM190400 29016G27KT 6SM BLSN OVC020



MET'MAP, your aeronautical weather chart ! - Copyright ORBIFLY December 2007 - Disclaimer

ORBIFLY MET'MAP TEAM :

Programming & Development : Alexandra Zaïnal
Concept & original design : Baudouin d'Aumeries
Assistance for programming : Marc-Olivier Méhu
Technical & hardware support : Manuel Goepfert

Contact : metmap@orbifly.com




SOURCES & CREDITS :

   NOAA       Earth
Advisory